sensor_id;sensor_type;location;lat;lon;timestamp;temperature;humidity
13174;DHT22;6652;48.802;9.190;2023-04-21T00:00:04;6.00;99.90
13174;DHT22;6652;48.802;9.190;2023-04-21T00:02:33;6.00;99.90
13174;DHT22;6652;48.802;9.190;2023-04-21T00:05:04;6.00;99.90
13174;DHT22;6652;48.802;9.190;2023-04-21T00:07:31;6.00;99.90
13174;DHT22;6652;48.802;9.190;2023-04-21T00:09:58;6.00;99.90
13174;DHT22;6652;48.802;9.190;2023-04-21T00:12:25;6.00;99.90
13174;DHT22;6652;48.802;9.190;2023-04-21T00:14:52;6.00;99.90
13174;DHT22;6652;48.802;9.190;2023-04-21T00:17:20;6.00;99.90
13174;DHT22;6652;48.802;9.190;2023-04-21T00:19:47;6.00;99.90
13174;DHT22;6652;48.802;9.190;2023-04-21T00:22:14;6.00;99.90
13174;DHT22;6652;48.802;9.190;2023-04-21T00:24:41;6.00;99.90
13174;DHT22;6652;48.802;9.190;2023-04-21T00:27:08;6.00;99.90
13174;DHT22;6652;48.802;9.190;2023-04-21T00:29:35;5.90;99.90
13174;DHT22;6652;48.802;9.190;2023-04-21T00:32:03;6.00;99.90
13174;DHT22;6652;48.802;9.190;2023-04-21T00:34:34;5.90;99.90
13174;DHT22;6652;48.802;9.190;2023-04-21T00:37:01;5.90;99.90
13174;DHT22;6652;48.802;9.190;2023-04-21T00:39:28;5.90;99.90
13174;DHT22;6652;48.802;9.190;2023-04-21T00:41:55;6.00;99.90
13174;DHT22;6652;48.802;9.190;2023-04-21T00:44:21;6.00;99.90
13174;DHT22;6652;48.802;9.190;2023-04-21T00:46:48;6.00;99.90
13174;DHT22;6652;48.802;9.190;2023-04-21T00:49:15;6.00;99.90
13174;DHT22;6652;48.802;9.190;2023-04-21T00:51:43;6.00;99.90
13174;DHT22;6652;48.802;9.190;2023-04-21T00:54:11;6.00;99.90
13174;DHT22;6652;48.802;9.190;2023-04-21T00:56:38;6.00;99.90
13174;DHT22;6652;48.802;9.190;2023-04-21T00:59:05;6.00;99.90
13174;DHT22;6652;48.802;9.190;2023-04-21T01:01:32;6.00;99.90
13174;DHT22;6652;48.802;9.190;2023-04-21T01:04:02;6.00;99.90
13174;DHT22;6652;48.802;9.190;2023-04-21T01:06:30;6.00;99.90
13174;DHT22;6652;48.802;9.190;2023-04-21T01:08:59;6.50;99.90
13174;DHT22;6652;48.802;9.190;2023-04-21T01:11:26;6.00;99.90
13174;DHT22;6652;48.802;9.190;2023-04-21T01:13:53;6.00;99.90
13174;DHT22;6652;48.802;9.190;2023-04-21T01:16:21;5.90;99.90
13174;DHT22;6652;48.802;9.190;2023-04-21T01:18:48;5.90;99.90
13174;DHT22;6652;48.802;9.190;2023-04-21T01:21:16;6.60;99.90
13174;DHT22;6652;48.802;9.190;2023-04-21T01:23:45;5.90;99.90
13174;DHT22;6652;48.802;9.190;2023-04-21T01:26:12;5.90;99.90
13174;DHT22;6652;48.802;9.190;2023-04-21T01:28:39;5.80;99.90
13174;DHT22;6652;48.802;9.190;2023-04-21T01:31:05;6.00;99.90
13174;DHT22;6652;48.802;9.190;2023-04-21T01:33:32;5.80;99.90
13174;DHT22;6652;48.802;9.190;2023-04-21T01:35:59;5.80;99.90
13174;DHT22;6652;48.802;9.190;2023-04-21T01:38:26;6.10;99.90
13174;DHT22;6652;48.802;9.190;2023-04-21T01:40:55;5.70;99.90
13174;DHT22;6652;48.802;9.190;2023-04-21T01:43:23;5.60;99.90
13174;DHT22;6652;48.802;9.190;2023-04-21T01:45:50;5.60;99.90
13174;DHT22;6652;48.802;9.190;2023-04-21T01:48:18;5.50;99.90
13174;DHT22;6652;48.802;9.190;2023-04-21T01:50:44;5.50;99.90
13174;DHT22;6652;48.802;9.190;2023-04-21T01:53:11;5.40;99.90
13174;DHT22;6652;48.802;9.190;2023-04-21T01:55:38;5.40;99.90
13174;DHT22;6652;48.802;9.190;2023-04-21T01:58:06;5.40;99.90
13174;DHT22;6652;48.802;9.190;2023-04-21T02:00:33;5.30;99.90
13174;DHT22;6652;48.802;9.190;2023-04-21T02:03:00;5.30;99.90
13174;DHT22;6652;48.802;9.190;2023-04-21T02:05:27;5.20;99.90
13174;DHT22;6652;48.802;9.190;2023-04-21T02:07:55;5.20;99.90
13174;DHT22;6652;48.802;9.190;2023-04-21T02:10:21;5.20;99.90
13174;DHT22;6652;48.802;9.190;2023-04-21T02:12:48;5.20;99.90
13174;DHT22;6652;48.802;9.190;2023-04-21T02:15:16;5.20;99.90
13174;DHT22;6652;48.802;9.190;2023-04-21T02:17:43;5.10;99.90
13174;DHT22;6652;48.802;9.190;2023-04-21T02:20:11;5.10;99.90
13174;DHT22;6652;48.802;9.190;2023-04-21T02:22:38;5.10;99.90
13174;DHT22;6652;48.802;9.190;2023-04-21T02:25:05;5.00;99.90
13174;DHT22;6652;48.802;9.190;2023-04-21T02:27:32;5.00;99.90
13174;DHT22;6652;48.802;9.190;2023-04-21T02:29:59;5.00;99.90
13174;DHT22;6652;48.802;9.190;2023-04-21T02:32:27;5.50;99.90
13174;DHT22;6652;48.802;9.190;2023-04-21T02:34:55;4.90;99.90
13174;DHT22;6652;48.802;9.190;2023-04-21T02:37:23;4.80;99.90
13174;DHT22;6652;48.802;9.190;2023-04-21T02:39:51;4.80;99.90
13174;DHT22;6652;48.802;9.190;2023-04-21T02:42:17;4.80;99.90
13174;DHT22;6652;48.802;9.190;2023-04-21T02:44:44;6.20;99.90
13174;DHT22;6652;48.802;9.190;2023-04-21T02:47:13;4.70;99.90
13174;DHT22;6652;48.802;9.190;2023-04-21T02:49:42;4.60;99.90
13174;DHT22;6652;48.802;9.190;2023-04-21T02:52:08;4.70;99.90
13174;DHT22;6652;48.802;9.190;2023-04-21T02:54:35;4.60;99.90
13174;DHT22;6652;48.802;9.190;2023-04-21T02:57:02;4.60;99.90
13174;DHT22;6652;48.802;9.190;2023-04-21T02:59:29;4.60;99.90
13174;DHT22;6652;48.802;9.190;2023-04-21T03:01:56;4.50;99.90
13174;DHT22;6652;48.802;9.190;2023-04-21T03:04:22;4.70;99.90
13174;DHT22;6652;48.802;9.190;2023-04-21T03:06:51;5.00;99.90
13174;DHT22;6652;48.802;9.190;2023-04-21T03:09:18;4.40;99.90
13174;DHT22;6652;48.802;9.190;2023-04-21T03:11:45;4.30;99.90
13174;DHT22;6652;48.802;9.190;2023-04-21T03:14:12;5.50;99.90
13174;DHT22;6652;48.802;9.190;2023-04-21T03:16:38;4.40;99.90
13174;DHT22;6652;48.802;9.190;2023-04-21T03:19:05;4.60;99.90
13174;DHT22;6652;48.802;9.190;2023-04-21T03:21:33;4.40;99.90
13174;DHT22;6652;48.802;9.190;2023-04-21T03:24:04;4.40;99.90
13174;DHT22;6652;48.802;9.190;2023-04-21T03:26:30;4.40;99.90
13174;DHT22;6652;48.802;9.190;2023-04-21T03:28:58;4.70;99.90
13174;DHT22;6652;48.802;9.190;2023-04-21T03:31:25;4.40;99.90
13174;DHT22;6652;48.802;9.190;2023-04-21T03:33:51;4.40;99.90
13174;DHT22;6652;48.802;9.190;2023-04-21T03:36:18;4.40;99.90
13174;DHT22;6652;48.802;9.190;2023-04-21T03:38:45;4.40;99.90
13174;DHT22;6652;48.802;9.190;2023-04-21T03:41:13;4.50;99.90
13174;DHT22;6652;48.802;9.190;2023-04-21T03:43:40;4.50;99.90
13174;DHT22;6652;48.802;9.190;2023-04-21T03:46:07;4.50;99.90
13174;DHT22;6652;48.802;9.190;2023-04-21T03:48:33;4.40;99.90
13174;DHT22;6652;48.802;9.190;2023-04-21T03:51:00;4.50;99.90
13174;DHT22;6652;48.802;9.190;2023-04-21T03:53:27;4.50;99.90
13174;DHT22;6652;48.802;9.190;2023-04-21T03:55:54;4.50;99.90
13174;DHT22;6652;48.802;9.190;2023-04-21T03:58:22;4.50;99.90
13174;DHT22;6652;48.802;9.190;2023-04-21T04:00:49;4.50;99.90
13174;DHT22;6652;48.802;9.190;2023-04-21T04:03:16;4.50;99.90
13174;DHT22;6652;48.802;9.190;2023-04-21T04:05:43;4.60;99.90
13174;DHT22;6652;48.802;9.190;2023-04-21T04:08:09;4.60;99.90
13174;DHT22;6652;48.802;9.190;2023-04-21T04:10:36;4.50;99.90
13174;DHT22;6652;48.802;9.190;2023-04-21T04:13:03;4.70;99.90
13174;DHT22;6652;48.802;9.190;2023-04-21T04:15:31;4.50;99.90
13174;DHT22;6652;48.802;9.190;2023-04-21T04:17:58;4.50;99.90
13174;DHT22;6652;48.802;9.190;2023-04-21T04:20:26;4.50;99.90
13174;DHT22;6652;48.802;9.190;2023-04-21T04:22:53;4.50;99.90
13174;DHT22;6652;48.802;9.190;2023-04-21T04:25:20;4.50;99.90
13174;DHT22;6652;48.802;9.190;2023-04-21T04:27:46;4.50;99.90
13174;DHT22;6652;48.802;9.190;2023-04-21T04:30:15;4.60;99.90
13174;DHT22;6652;48.802;9.190;2023-04-21T04:32:43;4.60;99.90
13174;DHT22;6652;48.802;9.190;2023-04-21T04:35:10;4.60;99.90
13174;DHT22;6652;48.802;9.190;2023-04-21T04:37:38;4.60;99.90
13174;DHT22;6652;48.802;9.190;2023-04-21T04:40:07;4.50;99.90
13174;DHT22;6652;48.802;9.190;2023-04-21T04:42:36;4.50;99.90
13174;DHT22;6652;48.802;9.190;2023-04-21T04:45:05;4.50;99.90
13174;DHT22;6652;48.802;9.190;2023-04-21T04:47:33;4.60;99.90
13174;DHT22;6652;48.802;9.190;2023-04-21T04:50:01;4.60;99.90
13174;DHT22;6652;48.802;9.190;2023-04-21T04:52:28;4.70;99.90
13174;DHT22;6652;48.802;9.190;2023-04-21T04:54:54;4.70;99.90
13174;DHT22;6652;48.802;9.190;2023-04-21T04:57:21;5.00;99.90
13174;DHT22;6652;48.802;9.190;2023-04-21T04:59:48;4.90;99.90
13174;DHT22;6652;48.802;9.190;2023-04-21T05:02:19;4.80;99.90
13174;DHT22;6652;48.802;9.190;2023-04-21T05:04:47;4.90;99.90
13174;DHT22;6652;48.802;9.190;2023-04-21T05:07:15;5.00;99.90
13174;DHT22;6652;48.802;9.190;2023-04-21T05:09:42;5.10;99.90
13174;DHT22;6652;48.802;9.190;2023-04-21T05:12:08;5.20;99.90
13174;DHT22;6652;48.802;9.190;2023-04-21T05:14:35;5.40;99.90
13174;DHT22;6652;48.802;9.190;2023-04-21T05:17:02;5.50;99.90
13174;DHT22;6652;48.802;9.190;2023-04-21T05:19:29;5.50;99.90
13174;DHT22;6652;48.802;9.190;2023-04-21T05:21:57;5.50;99.90
13174;DHT22;6652;48.802;9.190;2023-04-21T05:24:26;5.60;99.90
13174;DHT22;6652;48.802;9.190;2023-04-21T05:26:53;5.60;99.90
13174;DHT22;6652;48.802;9.190;2023-04-21T05:29:20;5.50;99.90
13174;DHT22;6652;48.802;9.190;2023-04-21T05:31:47;5.50;99.90
13174;DHT22;6652;48.802;9.190;2023-04-21T05:34:13;5.50;99.90
13174;DHT22;6652;48.802;9.190;2023-04-21T05:36:40;5.50;99.90
13174;DHT22;6652;48.802;9.190;2023-04-21T05:39:08;5.70;99.90
13174;DHT22;6652;48.802;9.190;2023-04-21T05:41:36;5.60;99.90
13174;DHT22;6652;48.802;9.190;2023-04-21T05:44:03;5.70;99.90
13174;DHT22;6652;48.802;9.190;2023-04-21T05:46:29;5.70;99.90
13174;DHT22;6652;48.802;9.190;2023-04-21T05:48:59;5.80;99.90
13174;DHT22;6652;48.802;9.190;2023-04-21T05:51:26;5.80;99.90
13174;DHT22;6652;48.802;9.190;2023-04-21T05:53:53;5.90;99.90
13174;DHT22;6652;48.802;9.190;2023-04-21T05:56:20;5.90;99.90
13174;DHT22;6652;48.802;9.190;2023-04-21T05:58:48;6.30;99.90
13174;DHT22;6652;48.802;9.190;2023-04-21T06:01:15;5.90;99.90
13174;DHT22;6652;48.802;9.190;2023-04-21T06:03:42;6.50;99.90
13174;DHT22;6652;48.802;9.190;2023-04-21T06:06:09;6.10;99.90
13174;DHT22;6652;48.802;9.190;2023-04-21T06:08:36;6.20;99.90
13174;DHT22;6652;48.802;9.190;2023-04-21T06:11:03;6.60;99.90
13174;DHT22;6652;48.802;9.190;2023-04-21T06:13:29;6.60;99.90
13174;DHT22;6652;48.802;9.190;2023-04-21T06:15:58;6.90;99.90
13174;DHT22;6652;48.802;9.190;2023-04-21T06:18:26;7.30;99.90
13174;DHT22;6652;48.802;9.190;2023-04-21T06:20:53;7.20;99.90
13174;DHT22;6652;48.802;9.190;2023-04-21T06:23:20;7.40;99.90
13174;DHT22;6652;48.802;9.190;2023-04-21T06:25:47;7.60;99.90
13174;DHT22;6652;48.802;9.190;2023-04-21T06:28:24;7.80;99.90
13174;DHT22;6652;48.802;9.190;2023-04-21T06:30:51;7.80;99.90
13174;DHT22;6652;48.802;9.190;2023-04-21T06:33:19;8.30;99.90
13174;DHT22;6652;48.802;9.190;2023-04-21T06:35:46;8.80;99.90
13174;DHT22;6652;48.802;9.190;2023-04-21T06:38:12;10.30;99.90
13174;DHT22;6652;48.802;9.190;2023-04-21T06:40:39;10.60;99.90
13174;DHT22;6652;48.802;9.190;2023-04-21T06:43:09;11.70;99.90
13174;DHT22;6652;48.802;9.190;2023-04-21T06:45:36;12.60;99.90
13174;DHT22;6652;48.802;9.190;2023-04-21T06:48:03;12.90;99.90
13174;DHT22;6652;48.802;9.190;2023-04-21T06:50:31;12.60;99.90
13174;DHT22;6652;48.802;9.190;2023-04-21T06:52:58;12.00;99.90
13174;DHT22;6652;48.802;9.190;2023-04-21T06:55:25;11.40;99.90
13174;DHT22;6652;48.802;9.190;2023-04-21T06:57:52;11.10;99.90
13174;DHT22;6652;48.802;9.190;2023-04-21T07:00:19;10.80;99.90
13174;DHT22;6652;48.802;9.190;2023-04-21T07:02:47;10.60;99.90
13174;DHT22;6652;48.802;9.190;2023-04-21T07:05:13;10.50;99.90
13174;DHT22;6652;48.802;9.190;2023-04-21T07:07:42;10.20;99.90
13174;DHT22;6652;48.802;9.190;2023-04-21T07:10:09;10.10;99.90
13174;DHT22;6652;48.802;9.190;2023-04-21T07:12:36;10.10;99.90
13174;DHT22;6652;48.802;9.190;2023-04-21T07:15:04;10.80;99.90
13174;DHT22;6652;48.802;9.190;2023-04-21T07:17:32;11.00;99.90
13174;DHT22;6652;48.802;9.190;2023-04-21T07:19:59;11.20;99.90
13174;DHT22;6652;48.802;9.190;2023-04-21T07:22:26;11.70;99.90
13174;DHT22;6652;48.802;9.190;2023-04-21T07:24:54;11.60;99.90
13174;DHT22;6652;48.802;9.190;2023-04-21T07:27:21;12.80;99.90
13174;DHT22;6652;48.802;9.190;2023-04-21T07:29:47;12.80;99.90
13174;DHT22;6652;48.802;9.190;2023-04-21T07:32:14;13.10;99.90
13174;DHT22;6652;48.802;9.190;2023-04-21T07:34:41;13.10;99.90
13174;DHT22;6652;48.802;9.190;2023-04-21T07:37:10;13.30;99.90
13174;DHT22;6652;48.802;9.190;2023-04-21T07:39:37;13.50;99.90
13174;DHT22;6652;48.802;9.190;2023-04-21T07:42:05;13.50;99.90
13174;DHT22;6652;48.802;9.190;2023-04-21T07:44:32;13.60;99.90
13174;DHT22;6652;48.802;9.190;2023-04-21T07:46:59;14.30;99.90
13174;DHT22;6652;48.802;9.190;2023-04-21T07:49:26;15.00;99.90
13174;DHT22;6652;48.802;9.190;2023-04-21T07:51:53;15.20;99.90
13174;DHT22;6652;48.802;9.190;2023-04-21T07:54:20;15.60;99.90
13174;DHT22;6652;48.802;9.190;2023-04-21T07:56:47;15.80;99.90
13174;DHT22;6652;48.802;9.190;2023-04-21T07:59:15;15.70;99.90
13174;DHT22;6652;48.802;9.190;2023-04-21T08:01:42;15.70;99.90
13174;DHT22;6652;48.802;9.190;2023-04-21T08:04:08;16.00;99.90
13174;DHT22;6652;48.802;9.190;2023-04-21T08:06:35;16.70;99.90
13174;DHT22;6652;48.802;9.190;2023-04-21T08:09:02;17.70;99.90
13174;DHT22;6652;48.802;9.190;2023-04-21T08:11:29;18.50;99.90
13174;DHT22;6652;48.802;9.190;2023-04-21T08:13:56;19.80;99.90
13174;DHT22;6652;48.802;9.190;2023-04-21T08:16:24;21.10;99.60
13174;DHT22;6652;48.802;9.190;2023-04-21T08:18:51;22.30;96.60
13174;DHT22;6652;48.802;9.190;2023-04-21T08:21:17;23.10;93.90
13174;DHT22;6652;48.802;9.190;2023-04-21T08:23:45;23.60;91.20
13174;DHT22;6652;48.802;9.190;2023-04-21T08:26:11;23.60;89.70
13174;DHT22;6652;48.802;9.190;2023-04-21T08:28:38;23.90;88.20
13174;DHT22;6652;48.802;9.190;2023-04-21T08:31:05;24.10;85.50
13174;DHT22;6652;48.802;9.190;2023-04-21T08:33:33;24.10;83.80
13174;DHT22;6652;48.802;9.190;2023-04-21T08:36:00;24.50;83.30
13174;DHT22;6652;48.802;9.190;2023-04-21T08:38:27;25.00;79.10
13174;DHT22;6652;48.802;9.190;2023-04-21T08:40:55;25.20;77.10
13174;DHT22;6652;48.802;9.190;2023-04-21T08:43:24;24.80;76.90
13174;DHT22;6652;48.802;9.190;2023-04-21T08:45:51;24.80;76.10
13174;DHT22;6652;48.802;9.190;2023-04-21T08:48:20;24.60;75.30
13174;DHT22;6652;48.802;9.190;2023-04-21T08:50:50;24.60;77.90
13174;DHT22;6652;48.802;9.190;2023-04-21T08:53:17;24.70;75.00
13174;DHT22;6652;48.802;9.190;2023-04-21T08:55:44;24.30;75.30
13174;DHT22;6652;48.802;9.190;2023-04-21T08:58:12;23.50;75.90
13174;DHT22;6652;48.802;9.190;2023-04-21T09:00:39;23.50;76.80
13174;DHT22;6652;48.802;9.190;2023-04-21T09:03:06;23.30;75.90
13174;DHT22;6652;48.802;9.190;2023-04-21T09:05:33;23.50;75.90
13174;DHT22;6652;48.802;9.190;2023-04-21T09:08:10;23.60;75.70
13174;DHT22;6652;48.802;9.190;2023-04-21T09:10:44;23.80;75.20
13174;DHT22;6652;48.802;9.190;2023-04-21T09:13:11;23.40;74.40
13174;DHT22;6652;48.802;9.190;2023-04-21T09:15:39;23.60;77.70
13174;DHT22;6652;48.802;9.190;2023-04-21T09:18:10;24.10;77.10
13174;DHT22;6652;48.802;9.190;2023-04-21T09:20:38;24.60;74.90
13174;DHT22;6652;48.802;9.190;2023-04-21T09:23:05;24.40;73.80
13174;DHT22;6652;48.802;9.190;2023-04-21T09:25:36;24.20;73.80
13174;DHT22;6652;48.802;9.190;2023-04-21T09:28:06;24.00;74.60
13174;DHT22;6652;48.802;9.190;2023-04-21T09:30:34;24.40;72.70
13174;DHT22;6652;48.802;9.190;2023-04-21T09:33:01;24.30;72.40
13174;DHT22;6652;48.802;9.190;2023-04-21T09:35:28;23.80;73.40
13174;DHT22;6652;48.802;9.190;2023-04-21T09:37:55;22.70;75.10
13174;DHT22;6652;48.802;9.190;2023-04-21T09:40:21;21.30;77.60
13174;DHT22;6652;48.802;9.190;2023-04-21T09:42:50;20.90;81.00
13174;DHT22;6652;48.802;9.190;2023-04-21T09:45:17;21.10;80.70
13174;DHT22;6652;48.802;9.190;2023-04-21T09:47:48;22.60;80.60
13174;DHT22;6652;48.802;9.190;2023-04-21T09:50:16;23.80;78.40
13174;DHT22;6652;48.802;9.190;2023-04-21T09:52:48;24.10;77.20
13174;DHT22;6652;48.802;9.190;2023-04-21T09:55:17;24.40;76.60
13174;DHT22;6652;48.802;9.190;2023-04-21T09:57:46;24.40;74.70
13174;DHT22;6652;48.802;9.190;2023-04-21T10:00:17;24.40;75.30
13174;DHT22;6652;48.802;9.190;2023-04-21T10:02:50;24.70;74.80
13174;DHT22;6652;48.802;9.190;2023-04-21T10:05:20;24.50;73.70
13174;DHT22;6652;48.802;9.190;2023-04-21T10:07:47;24.90;73.90
13174;DHT22;6652;48.802;9.190;2023-04-21T10:10:20;24.60;72.50
13174;DHT22;6652;48.802;9.190;2023-04-21T10:12:48;24.80;74.00
13174;DHT22;6652;48.802;9.190;2023-04-21T10:15:31;24.10;72.80
13174;DHT22;6652;48.802;9.190;2023-04-21T10:18:15;24.10;75.60
13174;DHT22;6652;48.802;9.190;2023-04-21T10:20:55;23.60;74.80
13174;DHT22;6652;48.802;9.190;2023-04-21T10:23:35;23.10;77.70
13174;DHT22;6652;48.802;9.190;2023-04-21T10:26:04;23.20;79.20
13174;DHT22;6652;48.802;9.190;2023-04-21T10:28:39;23.80;79.00
13174;DHT22;6652;48.802;9.190;2023-04-21T10:31:18;24.10;76.00
13174;DHT22;6652;48.802;9.190;2023-04-21T10:34:11;24.00;77.90
13174;DHT22;6652;48.802;9.190;2023-04-21T10:36:42;24.50;78.20
13174;DHT22;6652;48.802;9.190;2023-04-21T10:39:24;24.50;75.40
13174;DHT22;6652;48.802;9.190;2023-04-21T10:41:54;23.70;76.00
13174;DHT22;6652;48.802;9.190;2023-04-21T10:44:22;22.40;78.70
13174;DHT22;6652;48.802;9.190;2023-04-21T10:46:52;21.00;82.40
13174;DHT22;6652;48.802;9.190;2023-04-21T10:49:23;20.10;84.60
13174;DHT22;6652;48.802;9.190;2023-04-21T10:52:08;19.60;87.40
13174;DHT22;6652;48.802;9.190;2023-04-21T10:54:41;19.20;88.30
13174;DHT22;6652;48.802;9.190;2023-04-21T10:57:09;18.80;90.50
13174;DHT22;6652;48.802;9.190;2023-04-21T10:59:36;18.40;91.10
13174;DHT22;6652;48.802;9.190;2023-04-21T11:02:05;18.10;91.90
13174;DHT22;6652;48.802;9.190;2023-04-21T11:04:32;17.50;92.50
13174;DHT22;6652;48.802;9.190;2023-04-21T11:07:06;17.20;93.00
13174;DHT22;6652;48.802;9.190;2023-04-21T11:09:33;17.30;93.60
13174;DHT22;6652;48.802;9.190;2023-04-21T11:12:03;17.40;94.00
13174;DHT22;6652;48.802;9.190;2023-04-21T11:14:32;17.40;95.00
13174;DHT22;6652;48.802;9.190;2023-04-21T11:17:00;18.20;95.00
13174;DHT22;6652;48.802;9.190;2023-04-21T11:19:30;17.60;94.10
13174;DHT22;6652;48.802;9.190;2023-04-21T11:21:58;17.40;94.50
13174;DHT22;6652;48.802;9.190;2023-04-21T11:24:25;17.60;94.80
13174;DHT22;6652;48.802;9.190;2023-04-21T11:26:51;17.80;94.70
13174;DHT22;6652;48.802;9.190;2023-04-21T11:29:18;17.80;94.30
13174;DHT22;6652;48.802;9.190;2023-04-21T11:31:45;17.60;94.60
13174;DHT22;6652;48.802;9.190;2023-04-21T11:34:14;18.10;94.90
13174;DHT22;6652;48.802;9.190;2023-04-21T11:36:44;17.50;94.90
13174;DHT22;6652;48.802;9.190;2023-04-21T11:39:13;17.70;95.10
13174;DHT22;6652;48.802;9.190;2023-04-21T11:41:42;17.90;95.10
13174;DHT22;6652;48.802;9.190;2023-04-21T11:44:10;18.10;95.60
13174;DHT22;6652;48.802;9.190;2023-04-21T11:46:43;18.20;95.20
13174;DHT22;6652;48.802;9.190;2023-04-21T11:49:12;18.20;95.20
13174;DHT22;6652;48.802;9.190;2023-04-21T11:51:42;18.20;94.90
13174;DHT22;6652;48.802;9.190;2023-04-21T11:54:12;18.30;95.00
13174;DHT22;6652;48.802;9.190;2023-04-21T11:56:45;18.50;95.50
13174;DHT22;6652;48.802;9.190;2023-04-21T11:59:14;18.50;95.10
13174;DHT22;6652;48.802;9.190;2023-04-21T12:01:44;18.50;95.20
13174;DHT22;6652;48.802;9.190;2023-04-21T12:04:15;18.00;95.30
13174;DHT22;6652;48.802;9.190;2023-04-21T12:06:44;17.70;95.70
13174;DHT22;6652;48.802;9.190;2023-04-21T12:09:16;17.90;96.70
13174;DHT22;6652;48.802;9.190;2023-04-21T12:11:46;18.60;97.00
13174;DHT22;6652;48.802;9.190;2023-04-21T12:14:14;18.50;95.90
13174;DHT22;6652;48.802;9.190;2023-04-21T12:16:42;18.70;95.90
13174;DHT22;6652;48.802;9.190;2023-04-21T12:19:09;18.60;95.40
13174;DHT22;6652;48.802;9.190;2023-04-21T12:21:36;18.40;95.50
13174;DHT22;6652;48.802;9.190;2023-04-21T12:24:05;18.50;95.30
13174;DHT22;6652;48.802;9.190;2023-04-21T12:26:32;18.80;95.90
13174;DHT22;6652;48.802;9.190;2023-04-21T12:28:59;18.80;95.50
13174;DHT22;6652;48.802;9.190;2023-04-21T12:31:26;18.60;95.20
13174;DHT22;6652;48.802;9.190;2023-04-21T12:33:53;18.50;95.00
13174;DHT22;6652;48.802;9.190;2023-04-21T12:36:20;18.50;95.10
13174;DHT22;6652;48.802;9.190;2023-04-21T12:38:47;18.50;94.90
13174;DHT22;6652;48.802;9.190;2023-04-21T12:41:15;18.50;95.40
13174;DHT22;6652;48.802;9.190;2023-04-21T12:43:42;18.50;95.00
13174;DHT22;6652;48.802;9.190;2023-04-21T12:46:08;18.50;95.50
13174;DHT22;6652;48.802;9.190;2023-04-21T12:48:35;18.50;95.40
13174;DHT22;6652;48.802;9.190;2023-04-21T12:51:02;18.50;95.30
13174;DHT22;6652;48.802;9.190;2023-04-21T12:53:30;18.40;95.20
13174;DHT22;6652;48.802;9.190;2023-04-21T12:55:57;18.90;95.80
13174;DHT22;6652;48.802;9.190;2023-04-21T12:58:25;18.70;95.50
13174;DHT22;6652;48.802;9.190;2023-04-21T13:00:52;18.90;95.70
13174;DHT22;6652;48.802;9.190;2023-04-21T13:03:19;19.00;94.90
13174;DHT22;6652;48.802;9.190;2023-04-21T13:05:46;19.10;94.70
13174;DHT22;6652;48.802;9.190;2023-04-21T13:08:13;19.10;94.40
13174;DHT22;6652;48.802;9.190;2023-04-21T13:10:40;18.90;94.40
13174;DHT22;6652;48.802;9.190;2023-04-21T13:13:07;19.10;94.60
13174;DHT22;6652;48.802;9.190;2023-04-21T13:15:35;18.70;94.70
13174;DHT22;6652;48.802;9.190;2023-04-21T13:18:02;18.70;94.20
13174;DHT22;6652;48.802;9.190;2023-04-21T13:20:29;18.60;94.10
13174;DHT22;6652;48.802;9.190;2023-04-21T13:22:56;18.70;94.40
13174;DHT22;6652;48.802;9.190;2023-04-21T13:25:23;18.70;94.10
13174;DHT22;6652;48.802;9.190;2023-04-21T13:27:49;18.70;94.20
13174;DHT22;6652;48.802;9.190;2023-04-21T13:30:16;18.60;94.20
13174;DHT22;6652;48.802;9.190;2023-04-21T13:32:48;18.70;94.70
13174;DHT22;6652;48.802;9.190;2023-04-21T13:35:14;18.70;93.90
13174;DHT22;6652;48.802;9.190;2023-04-21T13:37:41;18.80;94.00
13174;DHT22;6652;48.802;9.190;2023-04-21T13:40:09;18.90;94.60
13174;DHT22;6652;48.802;9.190;2023-04-21T13:42:37;19.00;94.20
13174;DHT22;6652;48.802;9.190;2023-04-21T13:45:05;19.10;94.10
13174;DHT22;6652;48.802;9.190;2023-04-21T13:47:32;19.10;93.60
13174;DHT22;6652;48.802;9.190;2023-04-21T13:50:01;19.10;94.00
13174;DHT22;6652;48.802;9.190;2023-04-21T13:52:29;19.10;93.90
13174;DHT22;6652;48.802;9.190;2023-04-21T13:54:56;19.00;93.70
13174;DHT22;6652;48.802;9.190;2023-04-21T13:57:23;19.00;93.50
13174;DHT22;6652;48.802;9.190;2023-04-21T13:59:50;19.20;93.30
13174;DHT22;6652;48.802;9.190;2023-04-21T14:02:18;19.20;93.00
13174;DHT22;6652;48.802;9.190;2023-04-21T14:04:47;19.30;93.00
13174;DHT22;6652;48.802;9.190;2023-04-21T14:07:15;19.30;93.60
13174;DHT22;6652;48.802;9.190;2023-04-21T14:09:44;19.40;93.40
13174;DHT22;6652;48.802;9.190;2023-04-21T14:12:10;19.40;93.00
13174;DHT22;6652;48.802;9.190;2023-04-21T14:14:37;19.40;92.90
13174;DHT22;6652;48.802;9.190;2023-04-21T14:17:04;19.40;93.50
13174;DHT22;6652;48.802;9.190;2023-04-21T14:19:31;19.60;93.10
13174;DHT22;6652;48.802;9.190;2023-04-21T14:21:58;19.70;92.70
13174;DHT22;6652;48.802;9.190;2023-04-21T14:24:26;19.30;92.50
13174;DHT22;6652;48.802;9.190;2023-04-21T14:26:54;19.60;92.50
13174;DHT22;6652;48.802;9.190;2023-04-21T14:29:21;19.60;92.40
13174;DHT22;6652;48.802;9.190;2023-04-21T14:31:48;19.50;92.20
13174;DHT22;6652;48.802;9.190;2023-04-21T14:34:17;19.60;91.80
13174;DHT22;6652;48.802;9.190;2023-04-21T14:36:44;19.50;91.80
13174;DHT22;6652;48.802;9.190;2023-04-21T14:39:26;19.50;91.60
13174;DHT22;6652;48.802;9.190;2023-04-21T14:41:53;19.50;91.90
13174;DHT22;6652;48.802;9.190;2023-04-21T14:44:20;19.40;91.90
13174;DHT22;6652;48.802;9.190;2023-04-21T14:46:47;19.40;92.30
13174;DHT22;6652;48.802;9.190;2023-04-21T14:49:14;19.50;91.90
13174;DHT22;6652;48.802;9.190;2023-04-21T14:51:41;19.50;92.00
13174;DHT22;6652;48.802;9.190;2023-04-21T14:54:10;19.50;92.00
13174;DHT22;6652;48.802;9.190;2023-04-21T14:56:38;19.60;91.60
13174;DHT22;6652;48.802;9.190;2023-04-21T14:59:05;19.60;91.80
13174;DHT22;6652;48.802;9.190;2023-04-21T15:01:32;19.60;91.70
13174;DHT22;6652;48.802;9.190;2023-04-21T15:03:59;19.60;91.80
13174;DHT22;6652;48.802;9.190;2023-04-21T15:06:26;19.50;91.40
13174;DHT22;6652;48.802;9.190;2023-04-21T15:08:53;19.60;90.00
13174;DHT22;6652;48.802;9.190;2023-04-21T15:11:20;20.00;89.50
13174;DHT22;6652;48.802;9.190;2023-04-21T15:13:48;19.80;88.50
13174;DHT22;6652;48.802;9.190;2023-04-21T15:16:15;19.90;88.00
13174;DHT22;6652;48.802;9.190;2023-04-21T15:18:42;19.90;87.30
13174;DHT22;6652;48.802;9.190;2023-04-21T15:21:08;20.00;88.80
13174;DHT22;6652;48.802;9.190;2023-04-21T15:23:35;20.20;88.20
13174;DHT22;6652;48.802;9.190;2023-04-21T15:26:02;20.20;88.10
13174;DHT22;6652;48.802;9.190;2023-04-21T15:28:29;20.30;88.20
13174;DHT22;6652;48.802;9.190;2023-04-21T15:30:58;20.20;87.90
13174;DHT22;6652;48.802;9.190;2023-04-21T15:33:25;20.00;88.30
13174;DHT22;6652;48.802;9.190;2023-04-21T15:35:51;19.80;89.30
13174;DHT22;6652;48.802;9.190;2023-04-21T15:38:18;19.90;89.90
13174;DHT22;6652;48.802;9.190;2023-04-21T15:40:46;19.80;90.00
13174;DHT22;6652;48.802;9.190;2023-04-21T15:43:13;19.80;90.00
13174;DHT22;6652;48.802;9.190;2023-04-21T15:45:40;19.80;90.10
13174;DHT22;6652;48.802;9.190;2023-04-21T15:48:08;19.90;89.80
13174;DHT22;6652;48.802;9.190;2023-04-21T15:50:37;19.80;90.30
13174;DHT22;6652;48.802;9.190;2023-04-21T15:53:04;19.80;90.20
13174;DHT22;6652;48.802;9.190;2023-04-21T15:55:31;19.80;90.40